Time;durP1;ratioP1;P1;durP2;ratioP2;P2;SDS_P1;SDS_P2;PMS_P1;PMS_P2;Temp;Humidity;BMP_temperature;BMP_pressure;BME280_temperature;BME280_humidity;BME280_pressure;Samples;Min_cycle;Max_cycle;Signal;HPM_P1;HPM_P2
2021/12/11 00:01:06;;;;;;;45.97;26.00;;;1.30;1.00;;;;;;6111357;23;20967;-84
2021/12/11 00:03:40;;;;;;;44.70;26.48;;;1.30;1.00;;;;;;6108685;23;20195;-84
2021/12/11 00:06:14;;;;;;;47.67;25.73;;;1.30;1.00;;;;;;6108812;23;20220;-85
2021/12/11 00:08:45;;;;;;;38.30;23.70;;;1.30;1.00;;;;;;6110636;23;20235;-85
2021/12/11 00:11:20;;;;;;;35.80;22.35;;;1.30;1.00;;;;;;6107243;23;20197;-86
2021/12/11 00:13:47;;;;;;;41.83;26.02;;;1.20;1.00;;;;;;6108462;23;20244;-85
2021/12/11 00:16:17;;;;;;;39.63;25.33;;;1.20;1.00;;;;;;6108311;23;20212;-84
2021/12/11 00:18:45;;;;;;;41.20;24.30;;;1.30;1.00;;;;;;6109637;23;20200;-84
2021/12/11 00:21:15;;;;;;;39.72;25.70;;;1.30;1.00;;;;;;6109011;23;20193;-84
2021/12/11 00:23:51;;;;;;;42.05;24.20;;;1.30;1.00;;;;;;6109653;23;20188;-84
2021/12/11 00:26:25;;;;;;;38.95;24.95;;;1.30;1.00;;;;;;6108252;23;20199;-84
2021/12/11 00:28:53;;;;;;;44.65;26.52;;;1.30;1.00;;;;;;6132343;23;20256;-85
2021/12/11 00:31:21;;;;;;;43.35;26.67;;;1.30;1.00;;;;;;6108363;23;21208;-86
2021/12/11 00:33:53;;;;;;;42.50;24.25;;;1.30;1.00;;;;;;6105740;23;20189;-86
2021/12/11 00:36:32;;;;;;;45.58;27.65;;;1.30;1.00;;;;;;6102471;23;21415;-86
2021/12/11 00:39:06;;;;;;;44.85;26.02;;;1.30;1.00;;;;;;6102425;23;20196;-86
2021/12/11 00:41:35;;;;;;;42.25;23.65;;;1.30;1.00;;;;;;6101526;23;20188;-85
2021/12/11 00:44:03;;;;;;;35.53;22.58;;;1.20;1.00;;;;;;6112163;23;20211;-84
2021/12/11 00:46:33;;;;;;;38.92;23.63;;;1.20;1.00;;;;;;6110416;23;20200;-85
2021/12/11 00:49:21;;;;;;;43.30;25.27;;;1.10;1.00;;;;;;6109542;23;20196;-85
2021/12/11 00:51:57;;;;;;;40.28;24.45;;;1.20;1.00;;;;;;6118181;23;20187;-84
2021/12/11 00:54:40;;;;;;;38.97;26.38;;;1.20;1.00;;;;;;6127113;23;20236;-83
2021/12/11 00:57:10;;;;;;;39.30;25.35;;;1.20;1.00;;;;;;6106973;23;20222;-82
2021/12/11 00:59:37;;;;;;;38.83;24.50;;;1.20;1.00;;;;;;6101867;23;20196;-81
2021/12/11 01:02:06;;;;;;;38.38;25.77;;;1.10;1.00;;;;;;6101051;23;20199;-81
2021/12/11 01:04:41;;;;;;;38.83;24.48;;;1.10;1.00;;;;;;6103422;23;20196;-80
2021/12/11 01:07:16;;;;;;;42.40;25.73;;;1.10;1.00;;;;;;6105155;23;20463;-81
2021/12/11 01:09:48;;;;;;;45.47;24.75;;;1.10;1.00;;;;;;6106277;23;20207;-83
2021/12/11 01:12:23;;;;;;;41.65;22.48;;;1.20;1.00;;;;;;6103443;23;20192;-82
2021/12/11 01:14:55;;;;;;;43.67;25.23;;;1.20;1.00;;;;;;6104749;23;20247;-81
2021/12/11 01:17:31;;;;;;;47.78;24.13;;;1.20;1.00;;;;;;6127426;23;20212;-81
2021/12/11 01:20:02;;;;;;;49.42;26.73;;;1.20;1.00;;;;;;6101609;23;20204;-81
2021/12/11 01:22:35;;;;;;;46.17;25.67;;;1.20;1.00;;;;;;6104785;23;20251;-81
2021/12/11 01:25:13;;;;;;;45.47;25.83;;;1.20;1.00;;;;;;6103932;23;20184;-83
2021/12/11 01:27:44;;;;;;;43.80;26.15;;;1.20;1.00;;;;;;6103085;23;20918;-83
2021/12/11 01:30:14;;;;;;;42.15;25.48;;;1.20;1.00;;;;;;6103481;23;20260;-83
2021/12/11 01:32:42;;;;;;;46.75;27.00;;;1.20;1.00;;;;;;6097733;23;20196;-83
2021/12/11 01:35:13;;;;;;;40.85;26.35;;;1.20;1.00;;;;;;6100716;23;20252;-84
2021/12/11 01:37:40;;;;;;;52.90;29.13;;;1.20;1.00;;;;;;6101270;23;20215;-84
2021/12/11 01:40:10;;;;;;;41.53;26.05;;;1.20;1.00;;;;;;6101818;23;20202;-83
2021/12/11 01:42:39;;;;;;;46.17;26.95;;;1.20;1.00;;;;;;6098523;23;20959;-83
2021/12/11 01:45:11;;;;;;;48.35;25.58;;;1.20;1.00;;;;;;6100963;23;20235;-83
2021/12/11 01:47:42;;;;;;;42.65;26.45;;;1.20;1.00;;;;;;6101510;23;21034;-83
2021/12/11 01:50:17;;;;;;;44.03;24.05;;;1.30;1.00;;;;;;6098327;23;20249;-84
2021/12/11 01:52:47;;;;;;;48.22;26.90;;;1.30;1.00;;;;;;6101360;23;20212;-82
2021/12/11 01:55:24;;;;;;;47.75;27.73;;;1.30;1.00;;;;;;6118773;23;20288;-83
2021/12/11 01:57:54;;;;;;;48.05;26.15;;;1.30;1.00;;;;;;6127256;23;20211;-82
2021/12/11 02:00:28;;;;;;;44.08;26.35;;;1.30;1.00;;;;;;6119954;23;20216;-83
2021/12/11 02:02:58;;;;;;;51.45;29.75;;;1.40;1.00;;;;;;6095981;23;20193;-83
2021/12/11 02:05:28;;;;;;;47.88;26.35;;;1.30;1.00;;;;;;6099725;23;20263;-84
2021/12/11 02:07:59;;;;;;;51.67;28.58;;;1.20;1.00;;;;;;6100740;23;20688;-84
2021/12/11 02:10:29;;;;;;;46.03;27.05;;;1.20;1.00;;;;;;6102018;23;20203;-83
2021/12/11 02:12:58;;;;;;;50.88;27.23;;;1.20;1.00;;;;;;6101162;23;20339;-82
2021/12/11 02:15:33;;;;;;;50.88;27.50;;;1.20;1.00;;;;;;6114136;23;20200;-82
2021/12/11 02:18:08;;;;;;;48.03;26.88;;;1.10;1.00;;;;;;6129066;23;20176;-82
2021/12/11 02:20:38;;;;;;;43.88;28.38;;;1.20;1.00;;;;;;6128667;23;20187;-82
2021/12/11 02:23:12;;;;;;;45.78;26.02;;;1.20;1.00;;;;;;6127907;23;20241;-83
2021/12/11 02:25:43;;;;;;;43.60;25.80;;;1.20;1.00;;;;;;6130628;23;20208;-83
2021/12/11 02:28:16;;;;;;;50.72;32.78;;;1.20;1.00;;;;;;6128217;23;20185;-83
2021/12/11 02:30:46;;;;;;;41.28;25.52;;;1.10;1.00;;;;;;6128287;23;20184;-83
2021/12/11 02:33:17;;;;;;;47.17;29.08;;;1.20;1.00;;;;;;6126916;23;20184;-83
2021/12/11 02:35:47;;;;;;;40.05;24.80;;;1.20;1.00;;;;;;6128124;23;20216;-82
2021/12/11 02:38:20;;;;;;;40.50;23.17;;;1.20;1.00;;;;;;6129527;23;20196;-82
2021/12/11 02:40:52;;;;;;;40.53;27.30;;;1.20;1.00;;;;;;6126412;23;20179;-82
2021/12/11 02:43:25;;;;;;;45.58;26.08;;;1.30;1.00;;;;;;6128315;23;20180;-82
2021/12/11 02:45:58;;;;;;;37.03;25.15;;;1.30;1.00;;;;;;6126539;23;20188;-85
2021/12/11 02:48:28;;;;;;;38.13;25.10;;;1.30;1.00;;;;;;6127460;23;20187;-82
2021/12/11 02:51:04;;;;;;;47.10;27.90;;;1.20;1.00;;;;;;6128406;23;20180;-83
2021/12/11 02:53:35;;;;;;;40.92;25.58;;;1.20;1.00;;;;;;6128240;23;20176;-83
2021/12/11 02:56:10;;;;;;;43.00;26.25;;;1.20;1.00;;;;;;6127859;23;20247;-83
2021/12/11 02:58:42;;;;;;;43.75;26.60;;;1.20;1.00;;;;;;6124229;23;20183;-83
2021/12/11 03:01:21;;;;;;;44.33;26.02;;;1.20;1.00;;;;;;6120855;23;20192;-85
2021/12/11 03:03:53;;;;;;;50.00;27.10;;;1.10;1.00;;;;;;6106713;23;20189;-83
2021/12/11 03:06:24;;;;;;;48.72;26.02;;;1.10;1.00;;;;;;6119115;23;20196;-83
2021/12/11 03:08:55;;;;;;;53.75;29.65;;;1.00;1.00;;;;;;6125872;23;20184;-82
2021/12/11 03:11:27;;;;;;;48.65;27.05;;;1.10;1.00;;;;;;6107145;23;20252;-83
2021/12/11 03:13:55;;;;;;;51.90;28.38;;;1.00;1.00;;;;;;6111136;23;20184;-84
2021/12/11 03:16:25;;;;;;;53.72;25.98;;;1.00;1.00;;;;;;6113771;23;20209;-83
2021/12/11 03:18:54;;;;;;;47.08;27.15;;;1.00;1.00;;;;;;6112916;23;20529;-83
2021/12/11 03:21:21;;;;;;;45.00;27.30;;;1.00;1.00;;;;;;6113048;23;20196;-83
2021/12/11 03:23:49;;;;;;;51.00;28.95;;;1.00;1.00;;;;;;6116070;23;20196;-83
2021/12/11 03:26:17;;;;;;;47.22;27.30;;;1.00;1.00;;;;;;6116701;23;20240;-83
2021/12/11 03:28:45;;;;;;;47.75;24.85;;;1.00;1.00;;;;;;6115989;23;20191;-83
2021/12/11 03:31:14;;;;;;;58.65;29.85;;;1.00;1.00;;;;;;6115120;23;20199;-83
2021/12/11 03:33:43;;;;;;;53.22;30.83;;;1.00;1.00;;;;;;6124707;23;20213;-84
2021/12/11 03:36:15;;;;;;;52.28;26.77;;;0.90;1.00;;;;;;6127337;23;20196;-82
2021/12/11 03:38:47;;;;;;;45.40;27.55;;;0.90;1.00;;;;;;6126115;23;20219;-83
2021/12/11 03:41:14;;;;;;;47.55;28.88;;;1.00;1.00;;;;;;6126767;23;20196;-82
2021/12/11 03:43:43;;;;;;;45.50;28.13;;;1.00;1.00;;;;;;6125216;23;20200;-82
2021/12/11 03:46:11;;;;;;;46.97;27.67;;;1.00;1.00;;;;;;6125305;23;20322;-84
2021/12/11 03:48:45;;;;;;;47.03;28.48;;;1.10;1.00;;;;;;6127816;23;20176;-82
2021/12/11 03:51:17;;;;;;;49.88;27.38;;;1.10;1.00;;;;;;6123587;23;20167;-83
2021/12/11 03:53:44;;;;;;;49.60;28.40;;;1.10;1.00;;;;;;6121772;23;20176;-82
2021/12/11 03:56:15;;;;;;;45.97;27.55;;;1.00;1.00;;;;;;6115645;23;21080;-82
2021/12/11 03:58:48;;;;;;;45.38;29.38;;;1.10;1.00;;;;;;6106759;23;20208;-82
2021/12/11 04:01:22;;;;;;;51.70;30.33;;;1.10;1.00;;;;;;6113343;23;20192;-84
2021/12/11 04:03:50;;;;;;;48.50;27.90;;;1.10;1.00;;;;;;6121500;23;20172;-84
2021/12/11 04:06:18;;;;;;;50.95;29.10;;;1.20;1.00;;;;;;6103899;23;20205;-82
2021/12/11 04:08:46;;;;;;;51.00;29.70;;;1.20;1.00;;;;;;6108055;23;20193;-83
2021/12/11 04:11:16;;;;;;;52.00;28.63;;;1.20;1.00;;;;;;6126129;23;20200;-83
2021/12/11 04:13:45;;;;;;;54.65;29.95;;;1.20;1.00;;;;;;6120590;23;20176;-83
2021/12/11 04:16:14;;;;;;;53.10;30.02;;;1.20;1.00;;;;;;6102180;23;20215;-83
2021/12/11 04:18:42;;;;;;;47.05;27.55;;;1.30;1.00;;;;;;6099380;23;20220;-82
2021/12/11 04:21:10;;;;;;;47.70;26.33;;;1.30;1.00;;;;;;6101952;23;20200;-85
2021/12/11 04:23:37;;;;;;;48.55;29.70;;;1.30;1.00;;;;;;6102152;23;20208;-84
2021/12/11 04:26:05;;;;;;;44.90;27.38;;;1.40;1.00;;;;;;6119814;23;20200;-84
2021/12/11 04:28:35;;;;;;;46.97;28.33;;;1.40;1.00;;;;;;6119534;23;20204;-84
2021/12/11 04:31:09;;;;;;;51.15;28.10;;;1.40;1.00;;;;;;6120041;23;20189;-84
2021/12/11 04:33:40;;;;;;;50.60;29.42;;;1.30;1.00;;;;;;6120594;23;20180;-83
2021/12/11 04:36:11;;;;;;;52.13;29.75;;;1.30;1.00;;;;;;6116732;23;20240;-83
2021/12/11 04:38:39;;;;;;;51.17;30.92;;;1.30;1.00;;;;;;6120264;23;20199;-83
2021/12/11 04:41:08;;;;;;;52.92;30.50;;;1.30;1.00;;;;;;6117718;23;20257;-83
2021/12/11 04:43:36;;;;;;;55.70;31.13;;;1.40;1.00;;;;;;6117615;23;20192;-83
2021/12/11 04:46:09;;;;;;;46.58;29.38;;;1.40;1.00;;;;;;6117003;23;20229;-83
2021/12/11 04:48:46;;;;;;;54.28;30.10;;;1.30;1.00;;;;;;6117752;23;20216;-83
2021/12/11 04:51:21;;;;;;;50.78;30.30;;;1.30;1.00;;;;;;6121228;23;20248;-82
2021/12/11 04:54:00;;;;;;;52.78;29.52;;;1.30;1.00;;;;;;6122671;23;20191;-82
2021/12/11 04:56:54;;;;;;;52.55;29.23;;;1.30;1.00;;;;;;6118160;23;20192;-82
2021/12/11 04:59:38;;;;;;;56.13;30.20;;;1.30;1.00;;;;;;6118124;23;20622;-82
2021/12/11 05:02:30;;;;;;;48.40;29.95;;;1.30;1.00;;;;;;6112071;23;20803;-84
2021/12/11 05:05:09;;;;;;;47.05;29.02;;;1.30;1.00;;;;;;6105138;23;20180;-83
2021/12/11 05:07:43;;;;;;;53.90;30.05;;;1.30;1.00;;;;;;6102241;23;20607;-85
2021/12/11 05:10:16;;;;;;;49.05;29.08;;;1.30;1.00;;;;;;6100093;23;20192;-84
2021/12/11 05:12:46;;;;;;;53.70;28.67;;;1.30;1.00;;;;;;6100826;23;20667;-83
2021/12/11 05:15:18;;;;;;;53.40;29.08;;;1.30;1.00;;;;;;6096877;23;20200;-83
2021/12/11 05:17:48;;;;;;;55.10;30.38;;;1.30;1.00;;;;;;6099805;23;20749;-84
2021/12/11 05:20:19;;;;;;;56.65;32.33;;;1.30;1.00;;;;;;6110098;23;20200;-84
2021/12/11 05:22:46;;;;;;;56.08;30.95;;;1.30;1.00;;;;;;6100068;23;20256;-83
2021/12/11 05:25:14;;;;;;;56.22;30.45;;;1.30;1.00;;;;;;6100137;23;20192;-82
2021/12/11 05:27:43;;;;;;;59.33;30.52;;;1.30;1.00;;;;;;6101629;23;20204;-83
2021/12/11 05:30:14;;;;;;;48.03;28.33;;;1.20;1.00;;;;;;6098514;23;20206;-84
2021/12/11 05:32:42;;;;;;;54.47;30.70;;;1.20;1.00;;;;;;6102768;23;20196;-83
2021/12/11 05:35:12;;;;;;;60.05;32.08;;;1.30;1.00;;;;;;6103456;23;20509;-84
2021/12/11 05:37:40;;;;;;;61.35;31.77;;;1.30;1.00;;;;;;6107861;23;20207;-83
2021/12/11 05:40:10;;;;;;;66.70;29.35;;;1.20;1.00;;;;;;6125811;23;20200;-84
2021/12/11 05:42:37;;;;;;;56.28;29.92;;;1.10;1.00;;;;;;6128848;23;20195;-83
2021/12/11 05:45:05;;;;;;;75.00;32.55;;;1.10;1.00;;;;;;6124909;23;20188;-83
2021/12/11 05:47:33;;;;;;;65.68;30.40;;;1.00;1.00;;;;;;6124883;23;20197;-83
2021/12/11 05:50:00;;;;;;;49.88;29.13;;;1.00;1.00;;;;;;6126732;23;20236;-82
2021/12/11 05:52:28;;;;;;;61.35;31.48;;;1.10;1.00;;;;;;6123823;23;20184;-82
2021/12/11 05:54:55;;;;;;;63.63;29.27;;;1.10;1.00;;;;;;6118705;23;20192;-82
2021/12/11 05:57:25;;;;;;;60.88;28.65;;;1.00;1.00;;;;;;6115862;23;20282;-82
2021/12/11 05:59:52;;;;;;;51.75;29.00;;;0.90;1.00;;;;;;6117839;23;20216;-83
2021/12/11 06:02:22;;;;;;;80.90;30.88;;;0.90;1.00;;;;;;6117919;23;20240;-83
2021/12/11 06:04:52;;;;;;;58.10;28.77;;;0.80;1.00;;;;;;6118058;23;20188;-84
2021/12/11 06:07:22;;;;;;;53.75;28.15;;;0.80;1.00;;;;;;6113234;23;20209;-82
2021/12/11 06:09:57;;;;;;;75.75;30.30;;;0.90;1.00;;;;;;6121696;23;20177;-81
2021/12/11 06:12:24;;;;;;;61.60;29.58;;;0.90;1.00;;;;;;6125546;23;20172;-82
2021/12/11 06:14:53;;;;;;;51.85;29.30;;;1.00;1.00;;;;;;6103413;23;20204;-81
2021/12/11 06:17:23;;;;;;;65.55;30.17;;;1.00;1.00;;;;;;6102055;23;20677;-84
2021/12/11 06:19:53;;;;;;;73.32;30.25;;;1.00;1.00;;;;;;6103049;23;20212;-82
2021/12/11 06:22:23;;;;;;;73.68;30.98;;;1.10;1.00;;;;;;6116090;23;20196;-82
2021/12/11 06:24:53;;;;;;;90.45;32.25;;;1.10;1.00;;;;;;6101035;23;20425;-83
2021/12/11 06:27:21;;;;;;;59.33;28.67;;;1.10;1.00;;;;;;6113424;23;20232;-81
2021/12/11 06:29:48;;;;;;;84.18;33.13;;;1.10;1.00;;;;;;6110602;23;20949;-84
2021/12/11 06:32:14;;;;;;;71.70;32.50;;;1.10;1.00;;;;;;6106753;23;20216;-83
2021/12/11 06:34:42;;;;;;;66.20;28.50;;;1.00;1.00;;;;;;6112995;23;20208;-83
2021/12/11 06:37:11;;;;;;;76.22;30.77;;;1.10;1.00;;;;;;6110352;23;20204;-83
2021/12/11 06:39:38;;;;;;;69.35;26.02;;;1.10;1.00;;;;;;6112792;23;20268;-83
2021/12/11 06:42:09;;;;;;;74.95;29.85;;;1.10;1.00;;;;;;6101080;23;20196;-83
2021/12/11 06:44:38;;;;;;;62.03;30.67;;;1.10;1.00;;;;;;6102662;23;20188;-83
2021/12/11 06:47:09;;;;;;;64.75;27.30;;;1.10;1.00;;;;;;6102539;23;20268;-82
2021/12/11 06:49:39;;;;;;;63.60;28.23;;;1.10;1.00;;;;;;6105778;23;20197;-82
2021/12/11 06:52:10;;;;;;;66.55;30.25;;;1.00;1.00;;;;;;6107645;23;20192;-82
2021/12/11 06:54:37;;;;;;;80.80;30.55;;;1.00;1.00;;;;;;6078031;23;20207;-83
2021/12/11 06:57:07;;;;;;;58.55;27.02;;;1.00;1.00;;;;;;6103816;23;20209;-83
2021/12/11 06:59:35;;;;;;;58.88;28.65;;;1.00;1.00;;;;;;6103825;23;20208;-82
2021/12/11 07:02:03;;;;;;;63.50;28.42;;;1.10;1.00;;;;;;6103587;23;20189;-83
2021/12/11 07:04:31;;;;;;;57.50;27.10;;;1.10;1.00;;;;;;6104990;23;20195;-83
2021/12/11 07:06:59;;;;;;;60.53;26.40;;;1.10;1.00;;;;;;6103366;23;20260;-83
2021/12/11 07:09:29;;;;;;;54.47;28.27;;;1.10;1.00;;;;;;6107175;23;20189;-81
2021/12/11 07:11:57;;;;;;;59.58;26.92;;;1.10;1.00;;;;;;6123092;23;20181;-83
2021/12/11 07:14:30;;;;;;;55.35;26.90;;;1.20;1.00;;;;;;6121447;23;20240;-82
2021/12/11 07:16:58;;;;;;;59.42;27.45;;;1.20;1.00;;;;;;6113132;23;20196;-82
2021/12/11 07:19:25;;;;;;;58.22;25.67;;;1.20;1.00;;;;;;6102431;23;20201;-82
2021/12/11 07:21:54;;;;;;;51.28;26.50;;;1.20;1.00;;;;;;6100506;23;20774;-83
2021/12/11 07:24:24;;;;;;;51.75;24.15;;;1.20;1.00;;;;;;6099151;23;20203;-85
2021/12/11 07:26:52;;;;;;;53.08;24.50;;;1.20;1.00;;;;;;6100854;23;20239;-84
2021/12/11 07:29:20;;;;;;;60.78;27.60;;;1.20;1.00;;;;;;6101627;23;20204;-84
2021/12/11 07:31:53;;;;;;;56.67;25.80;;;1.10;1.00;;;;;;6100887;23;20192;-84
2021/12/11 07:34:21;;;;;;;55.58;24.88;;;1.20;1.00;;;;;;6100818;23;20269;-85
2021/12/11 07:36:50;;;;;;;54.63;25.63;;;1.20;1.00;;;;;;6098349;23;20196;-83
2021/12/11 07:39:20;;;;;;;52.95;27.67;;;1.20;1.00;;;;;;6100655;23;20220;-84
2021/12/11 07:41:48;;;;;;;57.72;26.42;;;1.30;1.00;;;;;;6101114;23;20196;-82
2021/12/11 07:44:16;;;;;;;51.90;25.45;;;1.20;1.00;;;;;;6102954;23;20196;-83
2021/12/11 07:46:44;;;;;;;44.30;24.98;;;1.20;1.00;;;;;;6103166;23;20286;-84
2021/12/11 07:49:13;;;;;;;50.47;23.77;;;1.20;1.00;;;;;;6104495;23;20256;-83
2021/12/11 07:51:41;;;;;;;45.65;24.83;;;1.20;1.00;;;;;;6103855;23;20910;-81
2021/12/11 07:54:08;;;;;;;54.00;23.67;;;1.20;1.00;;;;;;6104494;23;20227;-83
2021/12/11 07:56:37;;;;;;;53.70;26.52;;;1.30;1.00;;;;;;6117526;23;20288;-84
2021/12/11 07:59:07;;;;;;;60.58;26.90;;;1.20;1.00;;;;;;6118965;23;20212;-84
2021/12/11 08:01:38;;;;;;;54.50;27.27;;;1.20;1.00;;;;;;6125346;23;20191;-83
2021/12/11 08:04:06;;;;;;;53.15;24.88;;;1.20;1.00;;;;;;6123414;23;20248;-83
2021/12/11 08:06:37;;;;;;;59.28;25.85;;;1.20;1.00;;;;;;6126464;23;20248;-83
2021/12/11 08:09:08;;;;;;;52.00;24.48;;;1.20;1.00;;;;;;6123114;23;20182;-85
2021/12/11 08:11:36;;;;;;;51.80;25.40;;;1.10;1.00;;;;;;6123258;23;20192;-85
2021/12/11 08:14:04;;;;;;;60.88;27.15;;;1.10;1.00;;;;;;6121038;23;20313;-83
2021/12/11 08:16:43;;;;;;;53.08;26.15;;;1.10;1.00;;;;;;6109987;23;21011;-84
2021/12/11 08:19:10;;;;;;;53.55;25.55;;;1.10;1.00;;;;;;6106337;23;20220;-83
2021/12/11 08:21:39;;;;;;;52.25;24.70;;;1.20;1.00;;;;;;6103108;23;20200;-84
2021/12/11 08:24:08;;;;;;;55.85;27.52;;;1.30;1.00;;;;;;6103994;23;20193;-83
2021/12/11 08:26:39;;;;;;;58.22;26.42;;;1.30;1.00;;;;;;6103457;23;20204;-83
2021/12/11 08:29:07;;;;;;;52.80;26.50;;;1.30;1.00;;;;;;6105804;23;20188;-84
2021/12/11 08:31:34;;;;;;;50.97;24.13;;;1.30;1.00;;;;;;6110526;23;20284;-84
2021/12/11 08:34:02;;;;;;;53.97;26.30;;;1.30;1.00;;;;;;6102423;23;20196;-83
2021/12/11 08:36:29;;;;;;;56.85;26.08;;;1.30;1.00;;;;;;6100355;23;20204;-83
2021/12/11 08:38:59;;;;;;;51.10;25.80;;;1.20;1.00;;;;;;6097734;23;20199;-83
2021/12/11 08:41:29;;;;;;;52.28;26.08;;;1.20;1.00;;;;;;6108179;23;20211;-83
2021/12/11 08:44:00;;;;;;;49.63;25.02;;;1.20;1.00;;;;;;6110518;23;20214;-84
2021/12/11 08:46:28;;;;;;;50.97;26.33;;;1.30;1.00;;;;;;6103309;23;20263;-79
2021/12/11 08:48:58;;;;;;;52.38;25.80;;;1.30;1.00;;;;;;6118171;23;20196;-80
2021/12/11 08:51:28;;;;;;;50.35;26.00;;;1.50;1.00;;;;;;6113408;23;20180;-81
2021/12/11 08:53:57;;;;;;;58.33;26.80;;;1.50;1.00;;;;;;6114211;23;20199;-81
2021/12/11 08:56:25;;;;;;;53.67;26.67;;;1.50;1.00;;;;;;6115370;23;20437;-79
2021/12/11 08:58:53;;;;;;;54.40;27.02;;;1.60;1.00;;;;;;6117629;23;20214;-81
2021/12/11 09:01:26;;;;;;;52.65;28.17;;;1.60;1.00;;;;;;6122409;23;20196;-81
2021/12/11 09:03:57;;;;;;;54.78;30.48;;;1.80;1.00;;;;;;6119637;23;20202;-82
2021/12/11 09:06:28;;;;;;;49.35;28.08;;;2.00;1.00;;;;;;6118612;23;20236;-80
2021/12/11 09:09:01;;;;;;;52.05;28.42;;;2.00;1.00;;;;;;6115633;23;20180;-82
2021/12/11 09:11:32;;;;;;;54.35;27.23;;;2.00;1.00;;;;;;6113850;23;20199;-85
2021/12/11 09:14:05;;;;;;;49.90;27.27;;;2.10;1.00;;;;;;6114412;23;20185;-84
2021/12/11 09:16:39;;;;;;;47.53;25.90;;;2.10;1.00;;;;;;6111290;23;20422;-84
2021/12/11 09:19:12;;;;;;;43.75;27.35;;;2.00;1.00;;;;;;6110101;23;20192;-84
2021/12/11 09:21:43;;;;;;;40.13;25.60;;;2.10;1.00;;;;;;6099365;23;20193;-76
2021/12/11 09:24:18;;;;;;;42.58;25.75;;;2.20;1.00;;;;;;6109244;23;20540;-78
2021/12/11 09:26:49;;;;;;;36.47;22.58;;;2.10;1.00;;;;;;6106938;23;20673;-78
2021/12/11 09:29:21;;;;;;;35.97;23.33;;;2.20;1.00;;;;;;6105103;23;21038;-79
2021/12/11 09:32:03;;;;;;;30.80;22.85;;;2.10;1.00;;;;;;6109131;23;20224;-80
2021/12/11 09:34:34;;;;;;;35.28;24.90;;;2.10;1.00;;;;;;6108423;23;20184;-79
2021/12/11 09:37:04;;;;;;;33.38;22.77;;;2.10;1.00;;;;;;6107514;23;20257;-78
2021/12/11 09:39:38;;;;;;;30.33;22.15;;;2.00;1.00;;;;;;6107830;23;20222;-79
2021/12/11 09:42:04;;;;;;;35.60;22.88;;;2.00;1.00;;;;;;6109256;23;20184;-78
2021/12/11 09:44:36;;;;;;;39.85;25.63;;;1.90;1.00;;;;;;6106144;23;20657;-78
2021/12/11 09:47:06;;;;;;;39.97;26.20;;;1.90;1.00;;;;;;6103258;23;20227;-78
2021/12/11 09:49:36;;;;;;;40.25;27.75;;;1.90;1.00;;;;;;6105277;23;20203;-78
2021/12/11 09:52:16;;;;;;;36.50;23.73;;;1.90;1.00;;;;;;6109066;23;20184;-76
2021/12/11 09:54:47;;;;;;;39.78;26.08;;;2.00;1.00;;;;;;6107212;23;20192;-79
2021/12/11 09:57:18;;;;;;;36.63;24.15;;;2.10;1.00;;;;;;6111090;23;20222;-77
2021/12/11 09:59:49;;;;;;;36.63;24.27;;;2.00;1.00;;;;;;6113909;23;20217;-78
2021/12/11 10:02:20;;;;;;;37.13;23.08;;;2.10;1.00;;;;;;6107665;23;20192;-78
2021/12/11 10:04:58;;;;;;;32.72;21.77;;;2.10;1.00;;;;;;6107182;23;20259;-78
2021/12/11 10:07:29;;;;;;;38.30;21.85;;;2.10;1.00;;;;;;6108926;23;20267;-79
2021/12/11 10:10:01;;;;;;;37.10;23.08;;;2.00;1.00;;;;;;6107115;23;20466;-81
2021/12/11 10:12:33;;;;;;;30.65;20.35;;;2.00;1.00;;;;;;6117005;23;20188;-78
2021/12/11 10:15:07;;;;;;;35.10;21.38;;;2.00;1.00;;;;;;6107305;23;20217;-77
2021/12/11 10:17:40;;;;;;;36.92;23.45;;;2.00;1.00;;;;;;6109792;23;20192;-77
2021/12/11 10:20:11;;;;;;;35.28;22.17;;;2.00;1.00;;;;;;6110981;23;20267;-78
2021/12/11 10:22:42;;;;;;;30.27;21.13;;;2.10;1.00;;;;;;6111442;23;20184;-80
2021/12/11 10:25:14;;;;;;;34.20;22.55;;;2.20;1.00;;;;;;6105661;23;20268;-79
2021/12/11 10:27:41;;;;;;;36.15;21.48;;;2.20;1.00;;;;;;6106917;23;20200;-78
2021/12/11 10:30:12;;;;;;;35.25;21.58;;;2.40;1.00;;;;;;6105271;23;20188;-79
2021/12/11 10:32:39;;;;;;;28.33;20.27;;;2.40;1.00;;;;;;6114644;23;20180;-78
2021/12/11 10:35:12;;;;;;;29.60;19.60;;;2.40;1.00;;;;;;6109051;23;20192;-77
2021/12/11 10:37:40;;;;;;;27.75;18.95;;;2.30;1.00;;;;;;6104143;23;20248;-78
2021/12/11 10:40:13;;;;;;;23.02;15.13;;;2.40;1.00;;;;;;6101820;23;20216;-77
2021/12/11 10:42:41;;;;;;;22.80;16.20;;;2.40;1.00;;;;;;6105425;23;20748;-78
2021/12/11 10:45:12;;;;;;;24.90;17.85;;;2.60;1.00;;;;;;6104499;23;20248;-79
2021/12/11 10:47:42;;;;;;;23.38;16.85;;;2.70;1.00;;;;;;6104112;23;20201;-77
2021/12/11 10:50:14;;;;;;;29.63;19.77;;;2.80;1.00;;;;;;6104442;23;20201;-80
2021/12/11 10:52:41;;;;;;;25.42;17.80;;;2.80;1.00;;;;;;6106159;23;20188;-78
2021/12/11 10:55:13;;;;;;;27.08;17.02;;;2.80;1.00;;;;;;6104977;23;20196;-79
2021/12/11 10:57:40;;;;;;;24.75;19.25;;;2.60;1.00;;;;;;6107379;23;20259;-77
2021/12/11 11:00:14;;;;;;;27.75;18.00;;;2.60;1.00;;;;;;6105024;23;20212;-77
2021/12/11 11:02:42;;;;;;;26.38;18.15;;;2.70;1.00;;;;;;6107845;23;20223;-77
2021/12/11 11:05:14;;;;;;;28.75;18.40;;;2.50;1.00;;;;;;6104304;23;20188;-76
2021/12/11 11:07:43;;;;;;;28.58;19.38;;;2.40;1.00;;;;;;6106839;23;20308;-77
2021/12/11 11:10:15;;;;;;;28.35;18.40;;;2.40;1.00;;;;;;6102787;23;20196;-77
2021/12/11 11:12:42;;;;;;;29.60;18.15;;;2.40;1.00;;;;;;6109130;23;20190;-79
2021/12/11 11:15:13;;;;;;;29.67;19.08;;;2.30;1.00;;;;;;6111031;23;21180;-78
2021/12/11 11:17:40;;;;;;;31.10;19.75;;;2.30;1.00;;;;;;6118506;23;20199;-79
2021/12/11 11:20:11;;;;;;;32.10;20.20;;;2.30;1.00;;;;;;6111805;23;20222;-79
2021/12/11 11:22:42;;;;;;;27.48;18.45;;;2.40;1.00;;;;;;6107383;23;20195;-78
2021/12/11 11:25:15;;;;;;;29.15;19.23;;;2.40;1.00;;;;;;6109541;23;20268;-78
2021/12/11 11:27:44;;;;;;;32.58;20.80;;;2.40;1.00;;;;;;6110384;23;20280;-80
2021/12/11 11:30:15;;;;;;;30.13;22.00;;;2.50;1.00;;;;;;6112721;23;20207;-78
2021/12/11 11:32:42;;;;;;;31.58;20.77;;;2.60;1.00;;;;;;6113578;23;21027;-79
2021/12/11 11:35:12;;;;;;;32.50;21.17;;;2.70;1.00;;;;;;6128571;23;20188;-77
2021/12/11 11:37:40;;;;;;;31.60;20.63;;;2.80;1.00;;;;;;6131240;23;20180;-77
2021/12/11 11:40:10;;;;;;;34.53;21.25;;;2.80;1.00;;;;;;6131348;23;20206;-76
2021/12/11 11:42:40;;;;;;;30.88;20.80;;;2.90;1.00;;;;;;6131366;23;20180;-78
2021/12/11 11:45:09;;;;;;;28.38;18.65;;;2.90;1.00;;;;;;6131737;23;20168;-77
2021/12/11 11:47:37;;;;;;;27.23;18.27;;;2.70;1.00;;;;;;6131445;23;20184;-77
2021/12/11 11:50:06;;;;;;;29.05;18.52;;;2.80;1.00;;;;;;6132019;23;20176;-78
2021/12/11 11:52:33;;;;;;;29.38;18.83;;;2.90;1.00;;;;;;6131535;23;20172;-77
2021/12/11 11:55:06;;;;;;;25.90;17.88;;;2.80;1.00;;;;;;6131564;23;20176;-80
2021/12/11 11:57:36;;;;;;;25.80;18.10;;;2.80;1.00;;;;;;6131656;23;20191;-77
2021/12/11 12:00:08;;;;;;;25.77;18.17;;;2.70;1.00;;;;;;6131324;23;20168;-77
2021/12/11 12:02:37;;;;;;;22.10;16.80;;;2.60;1.00;;;;;;6131504;23;20165;-77
2021/12/11 12:05:05;;;;;;;28.27;19.27;;;2.60;1.00;;;;;;6131508;23;20374;-77
2021/12/11 12:07:33;;;;;;;30.05;20.65;;;2.70;1.00;;;;;;6130016;23;20196;-76
2021/12/11 12:10:05;;;;;;;27.20;18.83;;;2.70;1.00;;;;;;6131026;23;20651;-76
2021/12/11 12:12:32;;;;;;;22.95;16.38;;;2.70;1.00;;;;;;6128990;23;20224;-76
2021/12/11 12:15:00;;;;;;;26.77;17.85;;;2.70;1.00;;;;;;6127123;23;20196;-79
2021/12/11 12:17:30;;;;;;;22.35;18.20;;;2.70;1.00;;;;;;6125863;23;20191;-76
2021/12/11 12:20:00;;;;;;;27.92;17.92;;;2.70;1.00;;;;;;6152177;23;20175;-75
2021/12/11 12:22:32;;;;;;;27.67;19.58;;;2.70;1.00;;;;;;6126654;23;20180;-77
2021/12/11 12:25:05;;;;;;;32.25;20.25;;;2.70;1.00;;;;;;6128853;23;20239;-78
2021/12/11 12:27:35;;;;;;;29.27;20.10;;;2.70;1.00;;;;;;6126908;23;20192;-77
2021/12/11 12:30:06;;;;;;;27.45;19.80;;;2.80;1.00;;;;;;6126419;23;20195;-78
2021/12/11 12:32:36;;;;;;;27.13;18.92;;;2.80;1.00;;;;;;6121473;23;20204;-76
2021/12/11 12:35:08;;;;;;;28.60;18.58;;;2.60;1.00;;;;;;6124806;23;20180;-77
2021/12/11 12:37:35;;;;;;;25.33;17.77;;;2.50;1.00;;;;;;6121734;23;20709;-79
2021/12/11 12:40:07;;;;;;;29.50;18.65;;;2.50;1.00;;;;;;6120021;23;20519;-79
2021/12/11 12:42:37;;;;;;;30.60;18.13;;;2.50;1.00;;;;;;6119983;23;20185;-79
2021/12/11 12:45:10;;;;;;;26.17;19.17;;;2.40;1.00;;;;;;6110113;23;20207;-79
2021/12/11 12:47:41;;;;;;;31.40;20.42;;;2.40;1.00;;;;;;6106560;23;20196;-77
2021/12/11 12:50:13;;;;;;;31.20;19.42;;;2.40;1.00;;;;;;6113592;23;20197;-78
2021/12/11 12:52:44;;;;;;;28.65;20.35;;;2.40;1.00;;;;;;6118834;23;20193;-82
2021/12/11 12:55:15;;;;;;;29.88;19.63;;;2.40;1.00;;;;;;6121535;23;20216;-81
2021/12/11 12:57:48;;;;;;;31.67;19.50;;;2.40;1.00;;;;;;6122360;23;20201;-81
2021/12/11 13:00:22;;;;;;;33.80;21.98;;;2.40;1.00;;;;;;6120808;23;20901;-81
2021/12/11 13:02:53;;;;;;;33.72;21.50;;;2.40;1.00;;;;;;6120231;23;20169;-81
2021/12/11 13:05:25;;;;;;;31.85;19.95;;;2.40;1.00;;;;;;6118006;23;20280;-81